Cape Lisburne LRRS Airport Cape Lisburne US
ICAO: PALU
IATA:
Category: Medium
Scheduled Services:

Elevation: 16 ft
TransAlt. 18000 ft.

Airport Communications:
ANCHORAGE CNTR:119.65
KOTZEBUE RDO:122.3
CTAF/UNICOM:126.2

PALU Zoom In..

If you have problems with the map follow the link
https://www.worldairports.se/pages/airport.php?
ICAO=PALU

Runways:

(A) RW 08 length 4805 ft width 135 ft
---- / hdg 84

(B) RW 26 length 4805 ft width 135 ft
---- / hdg 264

Location; PALU
Day. 20 / Time. 20.55 Zulu
* Altimeter: 30.05
* Temperature: -09° c. -15.8°f.
* Wind from: 120° Speed 06 kn.
Dewpoint: -17° c.
Visibility: 10 Statute Miles.
Clouds: Clear (automated report).

PALU 202055Z AUTO 12006KT 10SM CLR M09/M17 A3005 RMK AO2 SLP176 T10931174 57017


Wind From 120°
Speed 06 kn.

 
 
jpsmedia.com for Web Design worldairports.se 2019   terms of use